Time;durP1;ratioP1;P1;durP2;ratioP2;P2;SDS_P1;SDS_P2;PMS_P1;PMS_P2;Temp;Humidity;BMP_temperature;BMP_pressure;BME280_temperature;BME280_humidity;BME280_pressure;Samples;Min_cycle;Max_cycle;Signal;HPM_P1;HPM_P2
2022/02/16 00:01:09;;;;;;;1.30;0.60;;;7.90;99.90;;;;;;6121356;23;20072;-79
2022/02/16 00:03:36;;;;;;;1.33;0.65;;;7.80;99.90;;;;;;6145471;23;20092;-78
2022/02/16 00:06:02;;;;;;;2.15;0.65;;;7.90;99.90;;;;;;6121725;23;20055;-78
2022/02/16 00:08:27;;;;;;;2.00;0.70;;;7.80;99.90;;;;;;6147727;23;20013;-77
2022/02/16 00:10:53;;;;;;;0.93;0.50;;;7.80;99.90;;;;;;6146746;23;20028;-77
2022/02/16 00:13:19;;;;;;;2.38;0.73;;;7.80;99.90;;;;;;6147725;23;20063;-78
2022/02/16 00:15:46;;;;;;;1.70;0.60;;;7.80;99.90;;;;;;6121187;23;20421;-78
2022/02/16 00:18:14;;;;;;;0.88;0.40;;;7.80;99.90;;;;;;6120699;23;20447;-78
2022/02/16 00:20:39;;;;;;;1.50;0.50;;;7.80;99.90;;;;;;6121434;23;20010;-78
2022/02/16 00:23:05;;;;;;;1.13;0.40;;;7.80;99.90;;;;;;6147621;23;20006;-77
2022/02/16 00:25:30;;;;;;;1.20;0.50;;;7.80;99.90;;;;;;6121339;23;20020;-76
2022/02/16 00:27:56;;;;;;;1.13;0.57;;;7.80;99.90;;;;;;6097217;23;20010;-78
2022/02/16 00:30:22;;;;;;;1.48;0.63;;;7.80;99.90;;;;;;6121329;23;20105;-77
2022/02/16 00:32:47;;;;;;;1.40;0.70;;;7.80;99.90;;;;;;6120804;23;20012;-78
2022/02/16 00:35:13;;;;;;;1.70;0.90;;;7.80;99.90;;;;;;6096664;23;20025;-77
2022/02/16 00:37:39;;;;;;;2.42;1.00;;;7.80;99.90;;;;;;6096316;23;20013;-77
2022/02/16 00:40:05;;;;;;;1.90;0.70;;;7.80;99.90;;;;;;6097336;23;20056;-77
2022/02/16 00:42:31;;;;;;;1.58;0.60;;;7.80;99.90;;;;;;6120593;23;20005;-79
2022/02/16 00:44:57;;;;;;;1.80;0.70;;;7.80;99.90;;;;;;6097381;23;20447;-77
2022/02/16 00:47:22;;;;;;;2.25;1.00;;;7.80;99.90;;;;;;6096959;23;20045;-78
2022/02/16 00:49:48;;;;;;;2.30;1.17;;;7.80;99.90;;;;;;6098290;23;20013;-77
2022/02/16 00:52:17;;;;;;;2.50;1.67;;;7.90;99.90;;;;;;6123224;23;20021;-78
2022/02/16 00:54:43;;;;;;;1.60;0.80;;;7.90;99.90;;;;;;6098506;23;20092;-77
2022/02/16 00:57:09;;;;;;;1.85;0.80;;;7.90;99.90;;;;;;6098851;23;20402;-78
2022/02/16 00:59:35;;;;;;;2.20;1.10;;;7.90;99.90;;;;;;6098632;23;20088;-78
2022/02/16 01:02:05;;;;;;;;;;;7.90;99.90;;;;;;6100318;23;20019;-78
2022/02/16 01:04:30;;;;;;;2.58;1.08;;;7.90;99.90;;;;;;6122885;23;20229;-77
2022/02/16 01:06:56;;;;;;;3.05;1.58;;;7.90;99.90;;;;;;6098583;23;20010;-78
2022/02/16 01:09:22;;;;;;;2.67;1.30;;;7.90;99.90;;;;;;6099105;23;20040;-79
2022/02/16 01:11:51;;;;;;;2.03;1.00;;;7.90;99.90;;;;;;6122521;23;20021;-78
2022/02/16 01:14:16;;;;;;;3.03;1.83;;;7.90;99.90;;;;;;6122898;23;20136;-78
2022/02/16 01:17:01;;;;;;;3.90;2.28;;;7.90;99.90;;;;;;6126920;23;20024;-77
2022/02/16 01:19:42;;;;;;;3.83;1.42;;;7.90;99.90;;;;;;6101340;23;20020;-77
2022/02/16 01:22:07;;;;;;;2.30;1.50;;;8.00;99.90;;;;;;6098221;23;20010;-78
2022/02/16 01:24:34;;;;;;;4.85;1.85;;;8.00;99.90;;;;;;6119106;23;20350;-78
2022/02/16 01:27:03;;;;;;;2.57;1.53;;;8.00;99.90;;;;;;6124222;23;20009;-77
2022/02/16 01:29:29;;;;;;;3.97;2.17;;;8.00;99.90;;;;;;6122358;23;20060;-78
2022/02/16 01:32:04;;;;;;;3.80;1.70;;;8.00;99.90;;;;;;6124370;23;20025;-78
2022/02/16 01:34:29;;;;;;;3.70;1.75;;;8.00;99.90;;;;;;6122537;23;20014;-77
2022/02/16 01:36:55;;;;;;;2.90;2.00;;;8.00;99.90;;;;;;6123007;23;20072;-78
2022/02/16 01:39:22;;;;;;;4.30;2.97;;;8.00;99.90;;;;;;6122819;23;20052;-78
2022/02/16 01:41:49;;;;;;;2.38;2.03;;;8.00;99.90;;;;;;6122231;23;20013;-79
2022/02/16 01:44:21;;;;;;;4.65;3.00;;;8.00;99.90;;;;;;6146631;23;20096;-77
2022/02/16 01:46:49;;;;;;;3.28;2.67;;;8.00;99.90;;;;;;6147018;23;20009;-78
2022/02/16 01:49:14;;;;;;;2.75;2.03;;;8.00;99.90;;;;;;6122987;23;20012;-78
2022/02/16 01:51:40;;;;;;;3.78;2.05;;;8.00;99.90;;;;;;6122215;23;20017;-77
2022/02/16 01:54:06;;;;;;;3.33;1.83;;;8.10;99.90;;;;;;6147069;23;20019;-78
2022/02/16 01:56:34;;;;;;;3.75;2.45;;;8.10;99.90;;;;;;6123089;23;20390;-77
2022/02/16 01:59:01;;;;;;;5.00;2.38;;;8.10;99.90;;;;;;6122238;23;20020;-78
2022/02/16 02:01:47;;;;;;;3.78;1.70;;;8.10;99.90;;;;;;6147078;23;20109;-78
2022/02/16 02:04:17;;;;;;;3.10;1.25;;;8.10;99.90;;;;;;6122742;23;20045;-78
2022/02/16 02:06:43;;;;;;;4.20;2.03;;;8.10;99.90;;;;;;6121997;23;20017;-77
2022/02/16 02:09:12;;;;;;;5.13;2.95;;;8.10;99.90;;;;;;6123223;23;20453;-78
2022/02/16 02:11:39;;;;;;;3.33;1.40;;;8.10;99.90;;;;;;6146547;23;20524;-78
2022/02/16 02:14:11;;;;;;;3.38;2.00;;;8.10;99.90;;;;;;6123078;23;20005;-78
2022/02/16 02:16:55;;;;;;;2.78;1.30;;;8.20;99.90;;;;;;6147622;23;20452;-79
2022/02/16 02:19:21;;;;;;;3.50;2.15;;;8.20;99.90;;;;;;6147305;23;20406;-78
2022/02/16 02:21:52;;;;;;;2.92;1.08;;;8.20;99.90;;;;;;6123628;23;20092;-78
2022/02/16 02:24:17;;;;;;;2.40;1.23;;;8.20;99.90;;;;;;6122048;23;20048;-78
2022/02/16 02:26:43;;;;;;;1.88;1.00;;;8.20;99.90;;;;;;6122177;23;20035;-78
2022/02/16 02:29:08;;;;;;;2.75;1.75;;;8.20;99.90;;;;;;6122098;23;20084;-77
2022/02/16 02:31:43;;;;;;;3.03;1.60;;;8.20;99.90;;;;;;6123702;23;20017;-78
2022/02/16 02:34:09;;;;;;;3.00;1.88;;;8.20;99.90;;;;;;6121948;23;20089;-80
2022/02/16 02:36:35;;;;;;;2.65;1.55;;;8.20;99.90;;;;;;6122047;23;20522;-77
2022/02/16 02:39:01;;;;;;;2.20;1.67;;;8.20;99.90;;;;;;6147332;23;20095;-80
2022/02/16 02:41:27;;;;;;;3.00;1.73;;;8.20;99.90;;;;;;6121868;23;20013;-78
2022/02/16 02:43:53;;;;;;;2.25;1.58;;;8.20;99.90;;;;;;6122565;23;20013;-78
2022/02/16 02:46:20;;;;;;;3.00;2.10;;;8.20;99.90;;;;;;6121684;23;20020;-78
2022/02/16 02:48:53;;;;;;;2.45;1.42;;;8.30;99.90;;;;;;6124574;23;20036;-78
2022/02/16 02:51:20;;;;;;;2.60;1.65;;;8.20;99.90;;;;;;6146169;23;20017;-78
2022/02/16 02:53:46;;;;;;;2.40;1.60;;;8.20;99.90;;;;;;6121879;23;20414;-78
2022/02/16 02:56:11;;;;;;;2.78;0.88;;;8.20;99.90;;;;;;6121872;23;20072;-78
2022/02/16 02:58:40;;;;;;;2.30;1.40;;;8.20;99.90;;;;;;6122242;23;20044;-78
2022/02/16 03:01:06;;;;;;;2.28;1.00;;;8.20;99.90;;;;;;6146847;23;20012;-78
2022/02/16 03:03:35;;;;;;;2.38;1.75;;;8.20;99.90;;;;;;6122335;23;20199;-78
2022/02/16 03:06:02;;;;;;;3.63;2.58;;;8.30;99.90;;;;;;6122119;23;20017;-78
2022/02/16 03:08:30;;;;;;;2.67;1.33;;;8.30;99.90;;;;;;6122199;23;20103;-80
2022/02/16 03:10:56;;;;;;;2.45;1.75;;;8.30;99.90;;;;;;6120878;23;20071;-78
2022/02/16 03:13:22;;;;;;;5.25;2.17;;;8.30;99.90;;;;;;6146167;23;20001;-78
2022/02/16 03:15:58;;;;;;;3.05;1.90;;;8.30;99.90;;;;;;6124002;23;20088;-78
2022/02/16 03:18:25;;;;;;;2.70;1.70;;;8.30;99.90;;;;;;6146761;23;20009;-77
2022/02/16 03:20:52;;;;;;;4.13;2.00;;;8.30;99.90;;;;;;6121730;23;20728;-78
2022/02/16 03:23:19;;;;;;;2.50;1.60;;;8.30;99.90;;;;;;6121971;23;20017;-78
2022/02/16 03:25:45;;;;;;;2.30;1.40;;;8.30;99.90;;;;;;6120823;23;20335;-77
2022/02/16 03:28:11;;;;;;;2.90;1.83;;;8.30;99.90;;;;;;6146241;23;20013;-78
2022/02/16 03:30:37;;;;;;;2.40;1.40;;;8.30;99.90;;;;;;6145779;23;20840;-78
2022/02/16 03:33:04;;;;;;;1.92;1.17;;;8.30;99.90;;;;;;6121768;23;20017;-78
2022/02/16 03:35:31;;;;;;;1.92;0.75;;;8.30;99.90;;;;;;6122339;23;20435;-78
2022/02/16 03:37:57;;;;;;;2.10;1.10;;;8.30;99.90;;;;;;6121767;23;20036;-78
2022/02/16 03:40:22;;;;;;;3.08;1.95;;;8.30;99.90;;;;;;6145294;23;20085;-78
2022/02/16 03:42:49;;;;;;;2.40;1.30;;;8.30;99.90;;;;;;6121585;23;20020;-78
2022/02/16 03:45:15;;;;;;;4.00;1.10;;;8.30;99.90;;;;;;6145580;23;20088;-78
2022/02/16 03:47:51;;;;;;;2.53;1.38;;;8.30;99.90;;;;;;6123323;23;20009;-78
2022/02/16 03:50:18;;;;;;;2.58;1.58;;;8.30;99.90;;;;;;6145533;23;20087;-78
2022/02/16 03:52:44;;;;;;;1.95;1.42;;;8.30;99.90;;;;;;6121607;23;20014;-78
2022/02/16 03:55:10;;;;;;;1.85;1.05;;;8.30;99.90;;;;;;6145380;23;20082;-78
2022/02/16 03:57:36;;;;;;;1.90;1.13;;;8.30;99.90;;;;;;6146190;23;20346;-77
2022/02/16 04:00:04;;;;;;;3.10;1.60;;;8.30;99.90;;;;;;6122016;23;20013;-78
2022/02/16 04:02:50;;;;;;;1.75;1.20;;;8.30;99.90;;;;;;6146019;23;20017;-79
2022/02/16 04:05:15;;;;;;;3.17;0.93;;;8.30;99.90;;;;;;6121536;23;20020;-78
2022/02/16 04:07:41;;;;;;;1.50;0.88;;;8.30;99.90;;;;;;6121724;23;20021;-78
2022/02/16 04:10:10;;;;;;;2.10;0.88;;;8.30;99.90;;;;;;6145820;23;20430;-78
2022/02/16 04:12:37;;;;;;;2.08;0.80;;;8.30;99.90;;;;;;6145879;23;20020;-78
2022/02/16 04:15:03;;;;;;;3.33;0.75;;;8.20;99.90;;;;;;6121431;23;20021;-78
2022/02/16 04:17:31;;;;;;;2.15;1.08;;;8.30;99.90;;;;;;6121598;23;20016;-78
2022/02/16 04:20:00;;;;;;;1.90;1.00;;;8.20;99.90;;;;;;6122259;23;20335;-78
2022/02/16 04:22:26;;;;;;;2.60;1.30;;;8.30;99.90;;;;;;6120713;23;20013;-78
2022/02/16 04:24:55;;;;;;;3.20;0.70;;;8.30;99.90;;;;;;6145042;23;20021;-77
2022/02/16 04:27:21;;;;;;;2.30;1.33;;;8.30;99.90;;;;;;6146085;23;20024;-78
2022/02/16 04:29:46;;;;;;;1.63;0.85;;;8.30;99.90;;;;;;6145998;23;20013;-77
2022/02/16 04:32:12;;;;;;;2.63;1.70;;;8.30;99.90;;;;;;6146613;23;20435;-77
2022/02/16 04:34:38;;;;;;;3.28;1.25;;;8.30;99.90;;;;;;6145368;23;20013;-78
2022/02/16 04:37:04;;;;;;;4.40;1.42;;;8.30;99.90;;;;;;6121064;23;20036;-77
2022/02/16 04:39:31;;;;;;;2.90;2.25;;;8.30;99.90;;;;;;6144808;23;20092;-77
2022/02/16 04:41:57;;;;;;;3.13;2.83;;;8.30;99.90;;;;;;6145972;23;20113;-78
2022/02/16 04:44:23;;;;;;;2.45;2.25;;;8.30;99.90;;;;;;6120883;23;20103;-78
2022/02/16 04:46:56;;;;;;;2.38;1.27;;;8.30;99.90;;;;;;6146283;23;20009;-77
2022/02/16 04:49:24;;;;;;;2.45;1.80;;;8.30;99.90;;;;;;6145823;23;20013;-78
2022/02/16 04:51:50;;;;;;;1.83;1.00;;;8.30;99.90;;;;;;6120659;23;20394;-77
2022/02/16 04:54:16;;;;;;;1.90;0.88;;;8.30;99.90;;;;;;6120806;23;20032;-78
2022/02/16 04:56:41;;;;;;;2.38;1.30;;;8.30;99.90;;;;;;6120936;23;20013;-78
2022/02/16 04:59:07;;;;;;;2.78;1.58;;;8.30;99.90;;;;;;6145893;23;20020;-78
2022/02/16 05:01:33;;;;;;;2.42;1.48;;;8.40;99.90;;;;;;6120614;23;20341;-78
2022/02/16 05:04:03;;;;;;;1.75;1.05;;;8.30;99.90;;;;;;6121977;23;20016;-78
2022/02/16 05:06:29;;;;;;;2.40;1.08;;;8.40;99.90;;;;;;6145241;23;20036;-80
2022/02/16 05:08:55;;;;;;;1.40;0.90;;;8.40;99.90;;;;;;6121131;23;20044;-78
2022/02/16 05:11:22;;;;;;;3.03;2.08;;;8.40;99.90;;;;;;6147115;23;20021;-79
2022/02/16 05:13:55;;;;;;;3.25;2.95;;;8.40;99.90;;;;;;6122620;23;20080;-78
2022/02/16 05:16:23;;;;;;;2.28;1.40;;;8.40;99.90;;;;;;6121263;23;20447;-79
2022/02/16 05:18:50;;;;;;;2.00;1.52;;;8.40;99.90;;;;;;6145678;23;20018;-78
2022/02/16 05:21:17;;;;;;;2.40;2.15;;;8.40;99.90;;;;;;6145142;23;20013;-79
2022/02/16 05:23:43;;;;;;;4.18;1.42;;;8.50;99.90;;;;;;6120346;23;20411;-78
2022/02/16 05:26:14;;;;;;;1.70;1.00;;;8.50;99.90;;;;;;6145605;23;20036;-78
2022/02/16 05:28:40;;;;;;;1.75;1.23;;;8.50;99.90;;;;;;6121042;23;20443;-78
2022/02/16 05:31:07;;;;;;;1.80;1.15;;;8.50;99.90;;;;;;6121248;23;20108;-79
2022/02/16 05:33:33;;;;;;;1.77;1.08;;;8.50;99.90;;;;;;6145664;23;20123;-79
2022/02/16 05:36:00;;;;;;;3.38;1.50;;;8.50;99.90;;;;;;6122462;23;20016;-78
2022/02/16 05:38:27;;;;;;;2.95;1.50;;;8.50;99.90;;;;;;6123920;23;20435;-78
2022/02/16 05:40:52;;;;;;;1.70;1.00;;;8.50;99.90;;;;;;6145674;23;20122;-79
2022/02/16 05:43:19;;;;;;;2.40;1.48;;;8.50;99.90;;;;;;6122800;23;20299;-79
2022/02/16 05:45:46;;;;;;;1.52;0.85;;;8.60;99.90;;;;;;6146955;23;20497;-79
2022/02/16 05:48:19;;;;;;;2.83;1.17;;;8.60;99.90;;;;;;6123006;23;20118;-78
2022/02/16 05:50:49;;;;;;;1.40;0.70;;;8.60;99.90;;;;;;6145618;23;20022;-79
2022/02/16 05:53:16;;;;;;;2.88;1.88;;;8.50;99.90;;;;;;6146649;23;20399;-78
2022/02/16 05:55:42;;;;;;;2.00;1.60;;;8.60;99.90;;;;;;6121810;23;20050;-79
2022/02/16 05:58:08;;;;;;;1.98;1.13;;;8.60;99.90;;;;;;6148833;23;20009;-79
2022/02/16 06:00:34;;;;;;;1.95;1.23;;;8.60;99.90;;;;;;6121516;23;20443;-78
2022/02/16 06:03:01;;;;;;;1.90;1.33;;;8.60;99.90;;;;;;6123284;23;20025;-80
2022/02/16 06:05:27;;;;;;;1.55;0.80;;;8.50;99.90;;;;;;6122354;23;20013;-78
2022/02/16 06:07:53;;;;;;;1.33;0.68;;;8.60;99.90;;;;;;6147427;23;20184;-79
2022/02/16 06:10:18;;;;;;;1.80;1.10;;;8.50;99.90;;;;;;6122082;23;20450;-79
2022/02/16 06:12:44;;;;;;;2.30;1.20;;;8.60;99.90;;;;;;6146267;23;20010;-78
2022/02/16 06:15:11;;;;;;;2.88;1.00;;;8.60;99.90;;;;;;6147324;23;20046;-78
2022/02/16 06:17:39;;;;;;;1.88;1.17;;;8.60;99.90;;;;;;6146461;23;20065;-79
2022/02/16 06:20:08;;;;;;;2.20;1.67;;;8.60;99.90;;;;;;6122740;23;20052;-78
2022/02/16 06:22:35;;;;;;;1.65;0.90;;;8.60;99.90;;;;;;6146087;23;20017;-79
2022/02/16 06:25:03;;;;;;;2.97;1.50;;;8.60;99.90;;;;;;6098186;23;20084;-79
2022/02/16 06:27:31;;;;;;;2.05;1.10;;;8.60;99.90;;;;;;6096701;23;20016;-79
2022/02/16 06:29:57;;;;;;;2.00;1.45;;;8.60;99.90;;;;;;6098386;23;20062;-79
2022/02/16 06:32:44;;;;;;;2.00;1.45;;;8.70;99.90;;;;;;6148573;23;20028;-79
2022/02/16 06:35:12;;;;;;;2.03;1.48;;;8.70;99.90;;;;;;6097781;23;20013;-78
2022/02/16 06:37:38;;;;;;;1.50;0.80;;;8.70;99.90;;;;;;6097509;23;20548;-79
2022/02/16 06:40:04;;;;;;;1.60;1.00;;;8.70;99.90;;;;;;6121367;23;20419;-78
2022/02/16 06:42:30;;;;;;;2.03;1.05;;;8.70;99.90;;;;;;6120813;23;20018;-79
2022/02/16 06:44:56;;;;;;;2.88;1.38;;;8.70;99.90;;;;;;6122177;23;20431;-79
2022/02/16 06:47:31;;;;;;;1.35;0.90;;;8.70;99.90;;;;;;6121602;23;20025;-80
2022/02/16 06:49:57;;;;;;;1.83;0.90;;;8.70;99.90;;;;;;6120567;23;20026;-79
2022/02/16 06:52:22;;;;;;;1.70;0.70;;;8.80;99.90;;;;;;6096689;23;20130;-78
2022/02/16 06:54:48;;;;;;;1.55;0.80;;;8.80;99.90;;;;;;6121205;23;20032;-77
2022/02/16 06:57:14;;;;;;;1.20;0.60;;;8.80;99.90;;;;;;6122204;23;20048;-78
2022/02/16 06:59:53;;;;;;;1.83;0.50;;;8.80;99.90;;;;;;6121759;23;20013;-79
2022/02/16 07:02:20;;;;;;;0.93;0.47;;;8.80;99.90;;;;;;6097163;23;20021;-78
2022/02/16 07:04:45;;;;;;;0.90;0.45;;;8.90;99.90;;;;;;6121558;23;20060;-78
2022/02/16 07:07:12;;;;;;;0.63;0.40;;;8.80;99.90;;;;;;6097941;23;20017;-77
2022/02/16 07:09:38;;;;;;;0.90;0.50;;;8.90;99.90;;;;;;6097157;23;20009;-78
2022/02/16 07:12:04;;;;;;;0.90;0.43;;;8.90;99.90;;;;;;6097587;23;20027;-79
2022/02/16 07:14:30;;;;;;;0.52;0.30;;;8.90;99.90;;;;;;6121536;23;20037;-77
2022/02/16 07:16:57;;;;;;;0.60;0.28;;;8.90;99.90;;;;;;6121023;23;20027;-78
2022/02/16 07:19:25;;;;;;;0.50;0.30;;;8.90;99.90;;;;;;6121541;23;20343;-78
2022/02/16 07:22:10;;;;;;;0.80;0.40;;;8.90;99.90;;;;;;6100124;23;20312;-78
2022/02/16 07:24:36;;;;;;;0.63;0.30;;;8.90;99.90;;;;;;6116984;23;20411;-78
2022/02/16 07:27:03;;;;;;;2.30;0.38;;;9.00;99.90;;;;;;6145166;23;20010;-77
2022/02/16 07:29:29;;;;;;;1.42;0.60;;;9.00;99.90;;;;;;6120589;23;20060;-79
2022/02/16 07:31:55;;;;;;;1.10;0.40;;;9.00;99.90;;;;;;6095572;23;20056;-78
2022/02/16 07:34:24;;;;;;;0.80;0.40;;;9.00;99.90;;;;;;6120978;23;20013;-77
2022/02/16 07:36:50;;;;;;;2.17;0.43;;;9.00;99.90;;;;;;6144696;23;20021;-78
2022/02/16 07:39:16;;;;;;;0.60;0.30;;;9.00;99.90;;;;;;6143190;23;20429;-78
2022/02/16 07:41:41;;;;;;;1.05;0.47;;;9.10;99.90;;;;;;6120064;23;20037;-78
2022/02/16 07:44:34;;;;;;;0.88;0.47;;;9.00;99.90;;;;;;6126417;23;20434;-77
2022/02/16 07:47:08;;;;;;;0.77;0.40;;;9.10;99.90;;;;;;6144573;23;20175;-77
2022/02/16 07:49:35;;;;;;;0.95;0.40;;;9.10;99.90;;;;;;6120264;23;20574;-77
2022/02/16 07:52:37;;;;;;;0.68;0.30;;;9.10;99.90;;;;;;6145272;23;20072;-77
2022/02/16 07:55:14;;;;;;;0.75;0.40;;;9.10;99.90;;;;;;6122817;23;20014;-76
2022/02/16 07:57:41;;;;;;;0.75;0.30;;;9.10;99.90;;;;;;6143993;23;20510;-77
2022/02/16 08:00:07;;;;;;;0.50;0.30;;;9.20;99.90;;;;;;6145018;23;20013;-81
2022/02/16 08:02:40;;;;;;;1.80;0.22;;;9.20;99.90;;;;;;6144340;23;20076;-77
2022/02/16 08:05:08;;;;;;;0.30;0.20;;;9.30;99.90;;;;;;6120509;23;20096;-78
2022/02/16 08:07:34;;;;;;;0.50;0.20;;;9.20;99.90;;;;;;6120357;23;20115;-79
2022/02/16 08:10:00;;;;;;;1.27;0.30;;;9.30;99.90;;;;;;6145993;23;20037;-77
2022/02/16 08:12:25;;;;;;;0.50;0.25;;;9.30;99.90;;;;;;6120637;23;20043;-78
2022/02/16 08:14:51;;;;;;;0.98;0.20;;;9.30;99.90;;;;;;6120270;23;20020;-79
2022/02/16 08:17:16;;;;;;;0.50;0.30;;;9.40;99.90;;;;;;6144315;23;20516;-77
2022/02/16 08:19:42;;;;;;;0.63;0.22;;;9.40;99.90;;;;;;6120425;23;20009;-77
2022/02/16 08:22:08;;;;;;;0.68;0.20;;;9.40;99.90;;;;;;6145479;23;20437;-78
2022/02/16 08:24:36;;;;;;;0.90;0.30;;;9.40;99.90;;;;;;6120475;23;20023;-79
2022/02/16 08:27:02;;;;;;;1.25;0.40;;;9.50;99.90;;;;;;6120922;23;20702;-79
2022/02/16 08:29:32;;;;;;;0.60;0.30;;;9.50;99.90;;;;;;6144762;23;20009;-78
2022/02/16 08:32:03;;;;;;;0.60;0.30;;;9.50;99.90;;;;;;6121350;23;20459;-78
2022/02/16 08:34:47;;;;;;;0.40;0.30;;;9.60;99.90;;;;;;6146318;23;20237;-78
2022/02/16 08:37:19;;;;;;;0.30;0.20;;;9.60;99.90;;;;;;6121316;23;20037;-79
2022/02/16 08:39:45;;;;;;;0.40;0.20;;;9.70;99.90;;;;;;6119644;23;20036;-77
2022/02/16 08:42:11;;;;;;;0.50;0.20;;;9.70;99.90;;;;;;6145817;23;20463;-78
2022/02/16 08:44:37;;;;;;;0.60;0.20;;;9.80;99.90;;;;;;6143887;23;20013;-79
2022/02/16 08:47:03;;;;;;;0.47;0.20;;;9.80;99.90;;;;;;6120359;23;20322;-77
2022/02/16 08:49:29;;;;;;;1.55;0.30;;;9.80;99.90;;;;;;6119750;23;20016;-78
2022/02/16 08:51:54;;;;;;;0.50;0.20;;;9.90;99.90;;;;;;6119319;23;20013;-78
2022/02/16 08:54:20;;;;;;;0.57;0.30;;;9.90;99.90;;;;;;6119336;23;20049;-77
2022/02/16 08:56:46;;;;;;;1.10;0.25;;;9.90;99.90;;;;;;6119102;23;20041;-77
2022/02/16 08:59:13;;;;;;;0.43;0.20;;;9.90;99.90;;;;;;6119744;23;20040;-78
2022/02/16 09:01:38;;;;;;;0.52;0.30;;;10.00;99.90;;;;;;6145635;23;20013;-78
2022/02/16 09:04:05;;;;;;;0.47;0.20;;;10.00;99.90;;;;;;6146157;23;20009;-78
2022/02/16 09:06:32;;;;;;;0.60;0.30;;;10.00;99.90;;;;;;6119939;23;20021;-78
2022/02/16 09:08:58;;;;;;;0.82;0.40;;;10.00;99.90;;;;;;6120118;23;20374;-78
2022/02/16 09:11:26;;;;;;;0.50;0.20;;;10.10;99.90;;;;;;6121822;23;20037;-78
2022/02/16 09:13:52;;;;;;;0.70;0.25;;;10.10;99.90;;;;;;6146876;23;20013;-78
2022/02/16 09:16:18;;;;;;;0.90;0.40;;;10.10;99.90;;;;;;6146819;23;20142;-78
2022/02/16 09:18:43;;;;;;;0.85;0.30;;;10.10;99.90;;;;;;6122014;23;20015;-79
2022/02/16 09:21:09;;;;;;;0.98;0.22;;;10.20;99.90;;;;;;6146345;23;20009;-78
2022/02/16 09:23:36;;;;;;;0.65;0.30;;;10.10;99.90;;;;;;6146347;23;20018;-78
2022/02/16 09:26:05;;;;;;;0.93;0.30;;;10.20;99.90;;;;;;6148853;23;20029;-78
2022/02/16 09:28:31;;;;;;;1.50;0.40;;;10.20;99.90;;;;;;6096651;23;20013;-77
2022/02/16 09:30:58;;;;;;;1.17;0.40;;;10.30;99.90;;;;;;6122255;23;20105;-78
2022/02/16 09:33:24;;;;;;;1.30;0.60;;;10.20;99.90;;;;;;6146365;23;20143;-78
2022/02/16 09:35:49;;;;;;;1.00;0.50;;;10.30;99.90;;;;;;6147068;23;20017;-78
2022/02/16 09:38:15;;;;;;;1.00;0.50;;;10.30;99.90;;;;;;6146537;23;20013;-78
2022/02/16 09:40:45;;;;;;;2.85;0.50;;;10.30;99.90;;;;;;6122080;23;20018;-78
2022/02/16 09:43:13;;;;;;;1.00;0.40;;;10.30;99.90;;;;;;6145641;23;20432;-79
2022/02/16 09:45:39;;;;;;;1.13;0.40;;;10.40;99.90;;;;;;6145896;23;20346;-77
2022/02/16 09:48:05;;;;;;;1.38;0.40;;;10.40;99.90;;;;;;6146687;23;20097;-77
2022/02/16 09:50:31;;;;;;;0.80;0.40;;;10.40;99.90;;;;;;6145832;23;20025;-78
2022/02/16 09:52:57;;;;;;;1.25;0.43;;;10.40;99.90;;;;;;6121113;23;20029;-78
2022/02/16 09:55:23;;;;;;;0.95;0.50;;;10.50;99.90;;;;;;6145898;23;20450;-78
2022/02/16 09:57:48;;;;;;;0.80;0.40;;;10.50;99.90;;;;;;6146123;23;20049;-78
2022/02/16 10:00:15;;;;;;;1.73;0.40;;;10.50;99.90;;;;;;6146620;23;20021;-78
2022/02/16 10:02:43;;;;;;;0.82;0.32;;;10.50;99.90;;;;;;6145865;23;20017;-79
2022/02/16 10:05:10;;;;;;;0.80;0.40;;;10.50;99.90;;;;;;6147697;23;20017;-79
2022/02/16 10:07:40;;;;;;;0.75;0.30;;;10.50;99.90;;;;;;6120787;23;20018;-80
2022/02/16 10:10:28;;;;;;;1.00;0.40;;;10.60;99.90;;;;;;6145522;23;20009;-78
2022/02/16 10:12:57;;;;;;;2.00;0.90;;;10.60;99.90;;;;;;6120464;23;20343;-78
2022/02/16 10:15:40;;;;;;;1.70;0.90;;;10.60;99.90;;;;;;6121041;23;20013;-80
2022/02/16 10:18:13;;;;;;;1.80;1.02;;;10.70;99.90;;;;;;6096973;23;20028;-79
2022/02/16 10:20:39;;;;;;;1.63;0.80;;;10.80;99.90;;;;;;6146722;23;20193;-79
2022/02/16 10:23:05;;;;;;;1.80;0.80;;;10.70;99.90;;;;;;6146890;23;20014;-78
2022/02/16 10:25:33;;;;;;;1.95;1.10;;;10.80;99.90;;;;;;6096334;23;20367;-81
2022/02/16 10:28:09;;;;;;;2.58;1.02;;;10.90;99.90;;;;;;6097387;23;20021;-80
2022/02/16 10:31:04;;;;;;;2.70;1.15;;;10.90;99.90;;;;;;6147898;23;20330;-78
2022/02/16 10:33:41;;;;;;;2.97;1.00;;;10.90;99.90;;;;;;6096433;23;20013;-79
2022/02/16 10:36:14;;;;;;;2.40;1.20;;;11.00;99.90;;;;;;6097427;23;20403;-79
2022/02/16 10:39:00;;;;;;;4.47;1.60;;;11.10;99.90;;;;;;6096773;23;20013;-79
2022/02/16 10:41:30;;;;;;;1.95;0.82;;;11.10;99.90;;;;;;6096678;23;20338;-78
2022/02/16 10:43:57;;;;;;;2.88;1.40;;;11.10;99.90;;;;;;6121487;23;20013;-78
2022/02/16 10:46:30;;;;;;;1.95;1.30;;;11.20;99.90;;;;;;6097325;23;20013;-78
2022/02/16 10:49:09;;;;;;;3.67;1.83;;;11.30;99.90;;;;;;6148129;23;20355;-79
2022/02/16 10:51:35;;;;;;;2.95;1.95;;;11.30;99.90;;;;;;6096314;23;20017;-79
2022/02/16 10:54:17;;;;;;;3.65;1.88;;;11.30;99.90;;;;;;6097371;23;20072;-79
2022/02/16 10:56:45;;;;;;;2.60;1.65;;;11.40;99.90;;;;;;6095495;23;20013;-78
2022/02/16 10:59:10;;;;;;;4.63;1.90;;;11.40;99.90;;;;;;6096702;23;20271;-80
2022/02/16 11:01:38;;;;;;;3.90;1.67;;;11.40;99.90;;;;;;6097288;23;20014;-79
2022/02/16 11:04:08;;;;;;;2.85;1.73;;;11.40;99.90;;;;;;6096147;23;20013;-79
2022/02/16 11:06:37;;;;;;;3.92;2.55;;;11.40;99.90;;;;;;6120899;23;20017;-78
2022/02/16 11:09:05;;;;;;;3.10;1.75;;;11.40;99.90;;;;;;6146864;23;20198;-78
2022/02/16 11:11:31;;;;;;;4.82;2.85;;;11.40;99.90;;;;;;6120120;23;20454;-78
2022/02/16 11:13:59;;;;;;;4.90;2.28;;;11.50;99.90;;;;;;6146925;23;20910;-80
2022/02/16 11:16:26;;;;;;;6.18;2.95;;;11.50;99.90;;;;;;6120304;23;20022;-79
2022/02/16 11:18:59;;;;;;;4.18;2.58;;;11.50;99.90;;;;;;6095707;23;20042;-79
2022/02/16 11:21:28;;;;;;;4.22;2.08;;;11.50;99.90;;;;;;6095875;23;20458;-78
2022/02/16 11:23:57;;;;;;;4.13;1.90;;;11.50;99.90;;;;;;6132129;23;20117;-78
2022/02/16 11:26:44;;;;;;;5.15;1.73;;;11.50;99.90;;;;;;6145043;23;20013;-78
2022/02/16 11:29:25;;;;;;;3.35;1.10;;;11.60;99.90;;;;;;6121076;23;20084;-79
2022/02/16 11:31:51;;;;;;;4.72;1.88;;;11.60;99.90;;;;;;6143861;23;20435;-79
2022/02/16 11:34:23;;;;;;;4.40;2.00;;;11.70;99.90;;;;;;6119903;23;20125;-78
2022/02/16 11:36:53;;;;;;;4.82;1.90;;;11.70;99.90;;;;;;6146575;23;20013;-79
2022/02/16 11:39:38;;;;;;;3.30;1.67;;;11.80;99.90;;;;;;6119780;23;20006;-79
2022/02/16 11:42:05;;;;;;;5.53;2.60;;;11.80;99.90;;;;;;6146530;23;20513;-80
2022/02/16 11:44:51;;;;;;;3.80;1.42;;;11.80;99.90;;;;;;6146282;23;20017;-79
2022/02/16 11:47:35;;;;;;;3.50;1.58;;;11.80;99.90;;;;;;6119677;23;20041;-79
2022/02/16 11:50:14;;;;;;;3.80;1.85;;;11.90;99.90;;;;;;6120382;23;20092;-80
2022/02/16 11:52:54;;;;;;;4.35;1.73;;;11.80;99.90;;;;;;6144406;23;20068;-81
2022/02/16 11:55:27;;;;;;;4.82;3.28;;;11.90;99.90;;;;;;6120924;23;20438;-80
2022/02/16 11:57:55;;;;;;;9.40;2.03;;;11.90;99.90;;;;;;6121000;23;20169;-80
2022/02/16 12:00:27;;;;;;;4.65;2.28;;;11.90;99.90;;;;;;6145227;23;20043;-79
2022/02/16 12:02:55;;;;;;;5.05;2.45;;;11.90;99.90;;;;;;6147129;23;20013;-78
2022/02/16 12:05:45;;;;;;;5.05;2.75;;;12.00;99.90;;;;;;6120813;23;20013;-80
2022/02/16 12:08:36;;;;;;;6.13;2.45;;;12.00;99.90;;;;;;6145186;23;20019;-81
2022/02/16 12:11:19;;;;;;;5.97;3.13;;;12.00;99.90;;;;;;6120933;23;20032;-80
2022/02/16 12:13:51;;;;;;;6.53;2.95;;;12.00;99.90;;;;;;6146806;23;20071;-79
2022/02/16 12:16:24;;;;;;;4.68;2.47;;;12.10;99.90;;;;;;6120762;23;20039;-79
2022/02/16 12:18:50;;;;;;;7.15;3.08;;;12.10;99.90;;;;;;6120303;23;20017;-79
2022/02/16 12:21:28;;;;;;;8.90;3.10;;;12.10;99.90;;;;;;6120203;23;20031;-82
2022/02/16 12:23:59;;;;;;;5.95;2.92;;;12.20;99.90;;;;;;6146382;23;20029;-80
2022/02/16 12:26:27;;;;;;;8.68;3.72;;;12.20;99.90;;;;;;6095310;23;20015;-79
2022/02/16 12:29:05;;;;;;;5.93;2.53;;;12.20;99.90;;;;;;6121171;23;20013;-80
2022/02/16 12:31:37;;;;;;;10.02;3.63;;;12.20;99.90;;;;;;6119372;23;20489;-80
2022/02/16 12:34:07;;;;;;;5.40;3.35;;;12.20;99.90;;;;;;6095500;23;20076;-79
2022/02/16 12:36:37;;;;;;;9.32;3.33;;;12.30;99.90;;;;;;6095080;23;20565;-78
2022/02/16 12:39:05;;;;;;;13.00;3.05;;;12.30;99.90;;;;;;6119947;23;20395;-79
2022/02/16 12:41:32;;;;;;;10.98;3.58;;;12.40;99.90;;;;;;6118813;23;20006;-78
2022/02/16 12:44:04;;;;;;;10.35;3.10;;;12.40;99.90;;;;;;6119668;23;20441;-79
2022/02/16 12:46:34;;;;;;;7.30;2.72;;;12.30;99.90;;;;;;6119238;23;20013;-79
2022/02/16 12:49:02;;;;;;;6.40;2.78;;;12.40;99.90;;;;;;6120255;23;20075;-79
2022/02/16 12:51:38;;;;;;;5.78;1.80;;;12.30;99.90;;;;;;6118200;23;20454;-80
2022/02/16 12:54:12;;;;;;;7.68;3.03;;;12.30;99.90;;;;;;6120535;23;20021;-78
2022/02/16 12:56:44;;;;;;;8.32;3.15;;;12.30;99.90;;;;;;6095334;23;20096;-79
2022/02/16 12:59:25;;;;;;;6.75;3.60;;;12.30;99.90;;;;;;6095721;23;20296;-81
2022/02/16 13:02:13;;;;;;;6.88;3.05;;;12.30;99.90;;;;;;6095450;23;20021;-79